Time;durP1;ratioP1;P1;durP2;ratioP2;P2;SDS_P1;SDS_P2;PMS_P1;PMS_P2;Temp;Humidity;BMP_temperature;BMP_pressure;BME280_temperature;BME280_humidity;BME280_pressure;Samples;Min_cycle;Max_cycle;Signal;HPM_P1;HPM_P2
2021/07/01 00:02:38;;;;;;;6.70;5.32;;;;;;;0.01;0.00;59042.03;10323863;28;20419;-59
2021/07/01 00:07:39;;;;;;;7.22;5.93;;;;;;;0.01;0.00;59042.03;10323088;28;20482;-59
2021/07/01 00:12:38;;;;;;;7.15;6.40;;;;;;;0.01;0.00;59042.03;10322258;28;20056;-59
2021/07/01 00:17:37;;;;;;;7.55;5.95;;;;;;;0.01;0.00;59042.03;10304585;28;20075;-59
2021/07/01 00:22:36;;;;;;;11.05;6.20;;;;;;;0.01;0.00;59042.03;10321991;28;20040;-59
2021/07/01 00:27:36;;;;;;;8.13;5.30;;;;;;;0.01;0.00;59042.03;10321804;28;20055;-59
2021/07/01 00:32:35;;;;;;;9.02;7.13;;;;;;;0.01;0.00;59042.03;10304165;28;20051;-59
2021/07/01 00:37:34;;;;;;;9.25;5.82;;;;;;;0.01;0.00;59042.03;10321249;28;20071;-59
2021/07/01 00:42:33;;;;;;;9.63;5.72;;;;;;;0.01;0.00;59042.03;10322292;28;20152;-59
2021/07/01 00:47:34;;;;;;;6.97;5.47;;;;;;;0.01;0.00;59042.03;10319074;28;20060;-59
2021/07/01 00:52:33;;;;;;;9.45;6.05;;;;;;;0.01;0.00;59042.03;10300657;28;20414;-59
2021/07/01 00:57:34;;;;;;;6.88;6.22;;;;;;;0.01;0.00;59042.03;10300399;28;20083;-59
2021/07/01 01:02:35;;;;;;;10.13;6.20;;;;;;;0.01;0.00;59042.03;10318627;28;20064;-59
2021/07/01 01:07:34;;;;;;;6.88;5.57;;;;;;;0.01;0.00;59042.03;10318476;28;20406;-59
2021/07/01 01:12:33;;;;;;;6.85;6.00;;;;;;;0.01;0.00;59042.03;10318465;28;20067;-59
2021/07/01 01:17:35;;;;;;;9.68;6.20;;;;;;;0.01;0.00;59042.03;10299742;28;20435;-59
2021/07/01 01:22:36;;;;;;;9.20;5.50;;;;;;;0.01;0.00;59042.03;10317008;28;20421;-59
2021/07/01 01:27:35;;;;;;;6.70;5.78;;;;;;;0.01;0.00;59042.03;10318806;28;20041;-59
2021/07/01 01:58:08;;;;;;;12.95;6.13;;;;;;;0.01;0.00;59042.03;10319980;28;20083;-60
2021/07/01 02:03:45;;;;;;;10.73;6.82;;;;;;;0.01;0.00;59042.03;10162941;28;20084;-53
2021/07/01 02:09:04;;;;;;;9.13;7.28;;;;;;;0.01;0.00;59042.03;10278859;28;20082;-56
2021/07/01 02:14:14;;;;;;;8.98;5.82;;;;;;;0.01;0.00;59042.03;10317936;28;20520;-56
2021/07/01 02:19:31;;;;;;;7.63;6.57;;;;;;;0.01;0.00;59042.03;10299672;28;20059;-56
2021/07/01 02:24:30;;;;;;;7.35;6.38;;;;;;;0.01;0.00;59042.03;10299317;28;20059;-56
2021/07/01 02:29:30;;;;;;;7.15;6.22;;;;;;;0.01;0.00;59042.03;10298920;28;20498;-54
2021/07/01 02:34:43;;;;;;;7.10;6.38;;;;;;;0.01;0.00;59042.03;10299542;28;20083;-52
2021/07/01 02:40:00;;;;;;;9.27;6.65;;;;;;;0.01;0.00;59042.03;10324727;28;20410;-55
2021/07/01 02:45:11;;;;;;;8.82;6.10;;;;;;;0.01;0.00;59042.03;10298697;28;20063;-52
2021/07/01 02:50:36;;;;;;;14.18;7.18;;;;;;;0.01;0.00;59042.03;10314379;28;20076;-55
2021/07/01 02:55:35;;;;;;;8.15;5.93;;;;;;;0.01;0.00;59042.03;10298980;28;20052;-54
2021/07/01 03:00:36;;;;;;;13.15;6.53;;;;;;;0.01;0.00;59042.03;10315115;28;20036;-54
2021/07/01 03:05:36;;;;;;;6.90;6.28;;;;;;;0.01;0.00;59042.03;10312823;28;20076;-54
2021/07/01 03:10:36;;;;;;;8.63;6.70;;;;;;;0.01;0.00;59042.03;10293005;28;20084;-53
2021/07/01 03:15:36;;;;;;;9.65;6.43;;;;;;;0.01;0.00;59042.03;10295986;28;20087;-55
2021/07/01 03:20:35;;;;;;;6.72;5.68;;;;;;;0.01;0.00;59042.03;10313026;28;20056;-56
2021/07/01 03:25:54;;;;;;;8.15;6.40;;;;;;;0.01;0.00;59042.03;10313691;28;20413;-54
2021/07/01 03:30:54;;;;;;;7.60;6.22;;;;;;;0.01;0.00;59042.03;10316063;28;20059;-56
2021/07/01 03:35:53;;;;;;;8.02;5.65;;;;;;;0.01;0.00;59042.03;10284545;28;20520;-56
2021/07/01 03:41:10;;;;;;;6.38;5.78;;;;;;;0.01;0.00;59042.03;10277515;28;20076;-56
2021/07/01 03:46:10;;;;;;;9.98;5.95;;;;;;;0.01;0.00;59042.03;10256513;28;20430;-54
2021/07/01 03:51:10;;;;;;;8.05;6.75;;;;;;;0.01;0.00;59042.03;10255438;28;20076;-56
2021/07/01 03:56:22;;;;;;;10.13;6.23;;;;;;;0.01;0.00;59042.03;10254932;28;20507;-56
2021/07/01 04:01:22;;;;;;;10.27;6.90;;;;;;;0.01;0.00;59042.03;10274390;28;20513;-57
2021/07/01 04:06:21;;;;;;;9.98;8.00;;;;;;;0.01;0.00;59042.03;10274373;28;20080;-56
2021/07/01 04:11:20;;;;;;;9.68;7.90;;;;;;;0.01;0.00;59042.03;10256267;28;20041;-56
2021/07/01 04:16:19;;;;;;;9.52;7.97;;;;;;;0.01;0.00;59042.03;10281142;28;20068;-57
2021/07/01 04:21:38;;;;;;;15.23;8.95;;;;;;;0.01;0.00;59042.03;10285941;28;20048;-56
2021/07/01 04:26:55;;;;;;;19.35;11.50;;;;;;;0.01;0.00;59042.03;10284738;28;20045;-59
2021/07/01 04:31:59;;;;;;;14.90;9.30;;;;;;;0.01;0.00;59042.03;10263545;28;20057;-53
2021/07/01 04:36:59;;;;;;;13.40;10.35;;;;;;;0.01;0.00;59042.03;10279648;28;20088;-56
2021/07/01 04:42:06;;;;;;;14.05;8.55;;;;;;;0.01;0.00;59042.03;10258409;28;20519;-57
2021/07/01 04:47:06;;;;;;;9.90;8.82;;;;;;;0.01;0.00;59042.03;10258438;28;20076;-55
2021/07/01 04:52:07;;;;;;;17.77;9.85;;;;;;;0.01;0.00;59042.03;10277637;28;20072;-55
2021/07/01 04:57:24;;;;;;;13.65;7.97;;;;;;;0.01;0.00;59042.03;10281779;28;20053;-55
2021/07/01 05:02:23;;;;;;;17.55;8.52;;;;;;;0.01;0.00;59042.03;10262229;28;20049;-57
2021/07/01 05:07:49;;;;;;;;;;;;;;;0.01;0.00;59042.03;10276260;28;20540;-56
2021/07/01 05:12:48;;;;;;;11.10;8.98;;;;;;;0.01;0.00;59042.03;10261488;28;19935;-56
2021/07/01 05:17:48;;;;;;;12.23;8.93;;;;;;;0.01;0.00;59042.03;10278959;28;20088;-57
2021/07/01 05:22:49;;;;;;;14.27;9.32;;;;;;;0.01;0.00;59042.03;10261205;28;20052;-57
2021/07/01 05:28:10;;;;;;;12.50;10.90;;;;;;;0.01;0.00;59042.03;10280391;28;20037;-56
2021/07/01 05:33:50;;;;;;;10.07;8.77;;;;;;;0.01;0.00;59042.03;10084910;28;20556;-56
2021/07/01 05:38:51;;;;;;;12.43;8.77;;;;;;;0.01;0.00;59042.03;10212476;28;20088;-56
2021/07/01 05:43:55;;;;;;;16.08;10.38;;;;;;;0.01;0.00;59042.03;10260273;28;20056;-57
2021/07/01 05:49:15;;;;;;;14.20;9.07;;;;;;;0.01;0.00;59042.03;10259812;28;20498;-57
2021/07/01 05:54:19;;;;;;;10.68;8.70;;;;;;;0.01;0.00;59042.03;10277793;28;20495;-56
2021/07/01 05:59:20;;;;;;;12.77;10.20;;;;;;;0.01;0.00;59042.03;10277904;28;20079;-54
2021/07/01 06:04:19;;;;;;;12.45;10.98;;;;;;;0.01;0.00;59042.03;10277860;28;20041;-56
2021/07/01 06:09:42;;;;;;;10.70;9.15;;;;;;;0.01;0.00;59042.03;10286247;28;20514;-55
2021/07/01 06:14:42;;;;;;;14.48;9.63;;;;;;;0.01;0.00;59042.03;10276782;28;20083;-57
2021/07/01 06:19:42;;;;;;;14.98;11.10;;;;;;;0.01;0.00;59042.03;10276433;28;20076;-52
2021/07/01 06:24:42;;;;;;;15.32;8.57;;;;;;;0.01;0.00;59042.03;10277045;28;20380;-55
2021/07/01 06:29:41;;;;;;;11.85;9.77;;;;;;;0.01;0.00;59042.03;10276534;28;20052;-53
2021/07/01 06:34:42;;;;;;;12.82;9.32;;;;;;;0.01;0.00;59042.03;10275533;28;20482;-54
2021/07/01 06:39:44;;;;;;;14.55;8.00;;;;;;;0.01;0.00;59042.03;10276671;28;20084;-56
2021/07/01 06:45:17;;;;;;;10.18;7.75;;;;;;;0.01;0.00;59042.03;10235479;28;20095;-56
2021/07/01 06:50:34;;;;;;;13.85;8.45;;;;;;;0.01;0.00;59042.03;10282842;28;20045;-56
2021/07/01 06:55:53;;;;;;;8.50;6.90;;;;;;;0.01;0.00;59042.03;10281359;28;20120;-55
2021/07/01 07:01:05;;;;;;;8.97;6.77;;;;;;;0.01;0.00;59042.03;10276406;28;20375;-57
2021/07/01 07:06:04;;;;;;;8.40;7.10;;;;;;;0.01;0.00;59042.03;10275752;28;20041;-56
2021/07/01 07:11:04;;;;;;;10.25;6.88;;;;;;;0.01;0.00;59042.03;10275485;28;20057;-54
2021/07/01 07:16:06;;;;;;;12.38;7.10;;;;;;;0.01;0.00;59042.03;10275939;28;20037;-56
2021/07/01 07:21:11;;;;;;;10.98;6.45;;;;;;;0.01;0.00;59042.03;10257296;28;20506;-57
2021/07/01 07:26:15;;;;;;;7.88;7.07;;;;;;;0.01;0.00;59042.03;10275803;28;20044;-57
2021/07/01 07:31:22;;;;;;;17.80;7.70;;;;;;;0.01;0.00;59042.03;10275075;28;20049;-56
2021/07/01 07:36:22;;;;;;;8.13;6.72;;;;;;;0.01;0.00;59042.03;10274157;28;20081;-56
2021/07/01 07:41:23;;;;;;;7.90;6.95;;;;;;;0.01;0.00;59042.03;10275134;28;20053;-56
2021/07/01 07:46:25;;;;;;;8.50;7.07;;;;;;;0.01;0.00;59042.03;10275464;28;20057;-54
2021/07/01 07:51:27;;;;;;;9.40;7.70;;;;;;;0.01;0.00;59042.03;10282157;28;20550;-55
2021/07/01 07:56:37;;;;;;;9.10;6.80;;;;;;;0.01;0.00;59042.03;10283337;28;20048;-57
2021/07/01 08:01:38;;;;;;;10.70;8.27;;;;;;;0.01;0.00;59042.03;10282419;28;20080;-57
2021/07/01 08:06:43;;;;;;;11.23;8.35;;;;;;;0.01;0.00;59042.03;10282519;28;20049;-55
2021/07/01 08:11:43;;;;;;;15.82;8.32;;;;;;;0.01;0.00;59042.03;10282030;28;20112;-57
2021/07/01 08:16:45;;;;;;;15.32;7.95;;;;;;;0.01;0.00;59042.03;10282519;28;20076;-55
2021/07/01 08:21:46;;;;;;;9.50;8.45;;;;;;;0.01;0.00;59042.03;10281760;28;20053;-57
2021/07/01 08:26:46;;;;;;;12.20;8.30;;;;;;;0.01;0.00;59042.03;10282471;28;20044;-57
2021/07/01 08:31:47;;;;;;;17.05;8.90;;;;;;;0.01;0.00;59042.03;10281490;28;20498;-55
2021/07/01 08:36:47;;;;;;;17.50;8.95;;;;;;;0.01;0.00;59042.03;10281475;28;20081;-56
2021/07/01 08:41:56;;;;;;;13.88;8.20;;;;;;;0.01;0.00;59042.03;10281113;28;20045;-56
2021/07/01 08:47:11;;;;;;;16.75;9.35;;;;;;;0.01;0.00;59042.03;10281264;28;20060;-57
2021/07/01 08:52:15;;;;;;;15.18;9.23;;;;;;;0.01;0.00;59042.03;10262438;28;20391;-57
2021/07/01 08:57:16;;;;;;;12.93;8.98;;;;;;;0.01;0.00;59042.03;10280485;28;20543;-57
2021/07/01 09:02:16;;;;;;;15.93;9.55;;;;;;;0.01;0.00;59042.03;10280010;28;20045;-57
2021/07/01 09:07:20;;;;;;;14.95;10.38;;;;;;;0.01;0.00;59042.03;10280868;28;20033;-57
2021/07/01 09:12:23;;;;;;;14.05;9.75;;;;;;;0.01;0.00;59042.03;10280659;28;20042;-55
2021/07/01 09:17:25;;;;;;;17.80;10.07;;;;;;;0.01;0.00;59042.03;10278778;28;20072;-56
2021/07/01 09:22:25;;;;;;;17.42;10.68;;;;;;;0.01;0.00;59042.03;10279530;28;20056;-57
2021/07/01 09:27:28;;;;;;;19.20;10.70;;;;;;;0.01;0.00;59042.03;10279224;28;20052;-56
2021/07/01 09:32:28;;;;;;;12.50;9.98;;;;;;;0.01;0.00;59042.03;10279240;28;20430;-56
2021/07/01 09:37:39;;;;;;;14.80;10.25;;;;;;;0.01;0.00;59042.03;10260446;28;20052;-55
2021/07/01 09:42:40;;;;;;;17.00;10.43;;;;;;;0.01;0.00;59042.03;10277620;28;20049;-56
2021/07/01 09:47:43;;;;;;;16.17;10.45;;;;;;;0.01;0.00;59042.03;10279279;28;20045;-55
2021/07/01 09:52:45;;;;;;;17.60;9.10;;;;;;;0.01;0.00;59042.03;10278007;28;20076;-56
2021/07/01 09:57:51;;;;;;;14.23;9.07;;;;;;;0.01;0.00;59042.03;10277826;28;20077;-56
2021/07/01 10:03:02;;;;;;;14.45;10.55;;;;;;;0.01;0.00;59042.03;10277535;28;20179;-57
2021/07/01 10:08:01;;;;;;;14.63;10.38;;;;;;;0.01;0.00;59042.03;10277285;28;20525;-56
2021/07/01 10:13:01;;;;;;;18.02;9.30;;;;;;;0.01;0.00;59042.03;10276387;28;20049;-57
2021/07/01 10:18:08;;;;;;;13.02;9.38;;;;;;;0.01;0.00;59042.03;10277027;28;20395;-56
2021/07/01 10:23:26;;;;;;;13.20;10.50;;;;;;;0.01;0.00;59042.03;10276986;28;20044;-57
2021/07/01 10:28:30;;;;;;;13.80;9.45;;;;;;;0.01;0.00;59042.03;10276290;28;20049;-56
2021/07/01 10:33:30;;;;;;;13.43;10.18;;;;;;;0.01;0.00;59042.03;10276780;28;20088;-56
2021/07/01 10:38:42;;;;;;;22.13;10.52;;;;;;;0.01;0.00;59042.03;10275529;28;20080;-57
2021/07/01 10:43:44;;;;;;;20.35;9.82;;;;;;;0.01;0.00;59042.03;10276516;28;20467;-54
2021/07/01 10:48:54;;;;;;;21.90;9.70;;;;;;;0.01;0.00;59042.03;10275895;28;20064;-57
2021/07/01 10:54:16;;;;;;;13.93;10.20;;;;;;;0.01;0.00;59042.03;10275799;28;20498;-57
2021/07/01 10:59:16;;;;;;;11.48;8.98;;;;;;;0.01;0.00;59042.03;10275321;28;20045;-57
2021/07/01 11:04:17;;;;;;;15.88;9.73;;;;;;;0.01;0.00;59042.03;10276332;28;20033;-57
2021/07/01 11:09:17;;;;;;;9.77;8.75;;;;;;;0.01;0.00;59042.03;10275096;28;20067;-57
2021/07/01 11:14:17;;;;;;;13.60;9.25;;;;;;;0.01;0.00;59042.03;10275791;28;20037;-57
2021/07/01 11:19:18;;;;;;;13.48;9.38;;;;;;;0.01;0.00;59042.03;10275009;28;20076;-57
2021/07/01 11:24:18;;;;;;;15.55;9.50;;;;;;;0.01;0.00;59042.03;10281392;28;20060;-57
2021/07/01 11:29:34;;;;;;;10.48;7.90;;;;;;;0.01;0.00;59042.03;10283173;28;20041;-57
2021/07/01 11:34:40;;;;;;;11.13;7.95;;;;;;;0.01;0.00;59042.03;10283515;28;20491;-58
2021/07/01 11:39:40;;;;;;;14.18;8.90;;;;;;;0.01;0.00;59042.03;10283538;28;20485;-56
2021/07/01 11:44:40;;;;;;;19.70;8.25;;;;;;;0.01;0.00;59042.03;10282726;28;20494;-57
2021/07/01 11:49:42;;;;;;;15.18;8.90;;;;;;;0.01;0.00;59042.03;10283179;28;20080;-56
2021/07/01 11:54:41;;;;;;;10.65;9.35;;;;;;;0.01;0.00;59042.03;10282950;28;20086;-57
2021/07/01 11:59:42;;;;;;;18.88;11.43;;;;;;;0.01;0.00;59042.03;10282789;28;20069;-57
2021/07/01 12:04:41;;;;;;;18.83;7.93;;;;;;;0.01;0.00;59042.03;10282588;28;20068;-56
2021/07/01 12:09:41;;;;;;;15.27;8.32;;;;;;;0.01;0.00;59042.03;10281831;28;20486;-58
2021/07/01 12:14:42;;;;;;;15.30;8.60;;;;;;;0.01;0.00;59042.03;10282383;28;20045;-56
2021/07/01 12:20:04;;;;;;;12.48;8.85;;;;;;;0.01;0.00;59042.03;10281930;28;20079;-57
2021/07/01 12:25:03;;;;;;;17.13;8.43;;;;;;;0.01;0.00;59042.03;10282038;28;20040;-57
2021/07/01 12:30:04;;;;;;;12.63;7.75;;;;;;;0.01;0.00;59042.03;10281419;28;20044;-55
2021/07/01 12:35:38;;;;;;;23.17;19.70;;;;;;;0.01;0.00;59042.03;10280926;28;20040;-57
2021/07/01 12:40:37;;;;;;;19.85;12.63;;;;;;;0.01;0.00;59042.03;10280927;28;20479;-57
2021/07/01 12:45:37;;;;;;;17.20;7.93;;;;;;;0.01;0.00;59042.03;10280845;28;20063;-57
2021/07/01 12:50:36;;;;;;;17.60;8.95;;;;;;;0.01;0.00;59042.03;10280271;28;20037;-57
2021/07/01 12:55:35;;;;;;;11.00;8.57;;;;;;;0.01;0.00;59042.03;10280841;28;20120;-57
2021/07/01 13:00:33;;;;;;;11.18;7.78;;;;;;;0.01;0.00;59042.03;10280681;28;20080;-56
2021/07/01 13:05:39;;;;;;;14.77;7.03;;;;;;;0.01;0.00;59042.03;10280153;28;20044;-56
2021/07/01 13:10:39;;;;;;;10.90;7.18;;;;;;;0.01;0.00;59042.03;10280465;28;20044;-56
2021/07/01 13:15:37;;;;;;;13.35;7.47;;;;;;;0.01;0.00;59042.03;10279371;28;20410;-58
2021/07/01 13:20:38;;;;;;;15.73;7.88;;;;;;;0.01;0.00;59042.03;10279193;28;20077;-57
2021/07/01 13:25:37;;;;;;;15.10;7.10;;;;;;;0.01;0.00;59042.03;10279739;28;20112;-58
2021/07/01 13:30:38;;;;;;;9.38;7.43;;;;;;;0.01;0.00;59042.03;10278085;28;20426;-57
2021/07/01 13:35:41;;;;;;;9.60;8.10;;;;;;;0.01;0.00;59042.03;10278857;28;20073;-58
2021/07/01 13:40:41;;;;;;;13.52;6.57;;;;;;;0.01;0.00;59042.03;10279172;28;20489;-58
2021/07/01 13:45:43;;;;;;;10.25;6.45;;;;;;;0.01;0.00;59042.03;10278099;28;20095;-58
2021/07/01 13:50:47;;;;;;;12.32;8.02;;;;;;;0.01;0.00;59042.03;10278082;28;20052;-58
2021/07/01 13:55:47;;;;;;;14.07;8.27;;;;;;;0.01;0.00;59042.03;10278326;28;20049;-58
2021/07/01 14:00:48;;;;;;;16.42;7.47;;;;;;;0.01;0.00;59042.03;10277699;28;20096;-58
2021/07/01 14:05:50;;;;;;;9.80;8.80;;;;;;;0.01;0.00;59042.03;10278424;28;20044;-58
2021/07/01 14:10:57;;;;;;;17.60;8.45;;;;;;;0.01;0.00;59042.03;10278264;28;20044;-58
2021/07/01 14:15:56;;;;;;;15.52;8.13;;;;;;;0.01;0.00;59042.03;10277209;28;20045;-58
2021/07/01 14:20:57;;;;;;;17.00;7.55;;;;;;;0.01;0.00;59042.03;10276818;28;20078;-58
2021/07/01 14:25:57;;;;;;;13.00;9.30;;;;;;;0.01;0.00;59042.03;10277177;28;20048;-58
2021/07/01 14:30:57;;;;;;;12.90;7.55;;;;;;;0.01;0.00;59042.03;10309033;28;20071;-58
2021/07/01 14:36:02;;;;;;;11.98;9.02;;;;;;;0.01;0.00;59042.03;10306809;28;20075;-58
2021/07/01 14:41:03;;;;;;;28.05;24.95;;;;;;;0.01;0.00;59042.03;10311477;28;20071;-58
2021/07/01 14:46:31;;;;;;;16.08;9.57;;;;;;;0.01;0.00;59042.03;10316840;28;20049;-55
2021/07/01 14:51:33;;;;;;;9.43;8.43;;;;;;;0.01;0.00;59042.03;10273293;28;20556;-56
2021/07/01 14:56:53;;;;;;;16.45;8.88;;;;;;;0.01;0.00;59042.03;10314852;28;20525;-56
2021/07/01 15:01:54;;;;;;;11.07;9.27;;;;;;;0.01;0.00;59042.03;10311082;28;20087;-58
2021/07/01 15:06:59;;;;;;;10.70;7.97;;;;;;;0.01;0.00;59042.03;10314510;28;20068;-56
2021/07/01 15:11:58;;;;;;;10.65;8.68;;;;;;;0.01;0.00;59042.03;10316453;28;20044;-57
2021/07/01 15:17:13;;;;;;;18.98;8.85;;;;;;;0.01;0.00;59042.03;10315622;28;20064;-57
2021/07/01 15:22:14;;;;;;;16.83;8.23;;;;;;;0.01;0.00;59042.03;10314181;28;20490;-58
2021/07/01 15:27:13;;;;;;;11.80;9.35;;;;;;;0.01;0.00;59042.03;10315042;28;20064;-56
2021/07/01 15:32:12;;;;;;;13.23;8.60;;;;;;;0.01;0.00;59042.03;10315844;28;20047;-58
2021/07/01 15:37:11;;;;;;;14.35;8.02;;;;;;;0.01;0.00;59042.03;10315009;28;20076;-54
2021/07/01 15:42:12;;;;;;;12.30;8.45;;;;;;;0.01;0.00;59042.03;10315161;28;20489;-52
2021/07/01 15:47:15;;;;;;;10.73;8.35;;;;;;;0.01;0.00;59042.03;10315048;28;20045;-57
2021/07/01 15:52:14;;;;;;;8.98;7.75;;;;;;;0.01;0.00;59042.03;10309738;28;20087;-57
2021/07/01 15:57:15;;;;;;;14.00;9.93;;;;;;;0.01;0.00;59042.03;10312044;28;20055;-51
2021/07/01 16:02:15;;;;;;;21.88;12.45;;;;;;;0.01;0.00;59042.03;10311777;28;20080;-57
2021/07/01 16:07:14;;;;;;;21.42;9.15;;;;;;;0.01;0.00;59042.03;10311160;28;20085;-58
2021/07/01 16:12:13;;;;;;;16.15;9.25;;;;;;;0.01;0.00;59042.03;10320838;28;20044;-58
2021/07/01 16:17:13;;;;;;;13.30;7.05;;;;;;;0.01;0.00;59042.03;10321714;28;20068;-58
2021/07/01 16:22:12;;;;;;;11.02;6.65;;;;;;;0.01;0.00;59042.03;10319651;28;20087;-58
2021/07/01 16:27:11;;;;;;;20.17;9.50;;;;;;;0.01;0.00;59042.03;10321267;28;20084;-59
2021/07/01 16:32:10;;;;;;;12.43;8.80;;;;;;;0.01;0.00;59042.03;10313845;28;20108;-59
2021/07/01 16:37:11;;;;;;;10.93;8.45;;;;;;;0.01;0.00;59042.03;10317566;28;20122;-59
2021/07/01 16:42:11;;;;;;;16.00;8.68;;;;;;;0.01;0.00;59042.03;10320405;28;20489;-60
2021/07/01 16:47:12;;;;;;;19.50;9.00;;;;;;;0.01;0.00;59042.03;10278535;28;20529;-60
2021/07/01 16:52:15;;;;;;;16.48;9.00;;;;;;;0.01;0.00;59042.03;10281443;28;20045;-60
2021/07/01 16:57:17;;;;;;;13.27;7.20;;;;;;;0.01;0.00;59042.03;10281467;28;20037;-59
2021/07/01 17:02:19;;;;;;;14.68;6.93;;;;;;;0.01;0.00;59042.03;10281194;28;20077;-60
2021/07/01 17:07:21;;;;;;;15.70;8.55;;;;;;;0.01;0.00;59042.03;10279149;28;20053;-58
2021/07/01 17:12:21;;;;;;;14.70;6.97;;;;;;;0.01;0.00;59042.03;10280277;28;20056;-58
2021/07/01 17:17:22;;;;;;;13.02;6.68;;;;;;;0.01;0.00;59042.03;10267210;28;20069;-57
2021/07/01 17:22:24;;;;;;;8.95;5.28;;;;;;;0.01;0.00;59042.03;10276754;28;20068;-58
2021/07/01 17:27:24;;;;;;;10.80;5.97;;;;;;;0.01;0.00;59042.03;10276699;28;20049;-58
2021/07/01 17:32:23;;;;;;;12.07;5.65;;;;;;;0.01;0.00;59042.03;10277879;28;20048;-58
2021/07/01 17:37:25;;;;;;;10.75;4.90;;;;;;;0.01;0.00;59042.03;10278120;28;20068;-59
2021/07/01 17:42:27;;;;;;;9.27;4.82;;;;;;;0.01;0.00;59042.03;10276744;28;20088;-59
2021/07/01 17:47:26;;;;;;;7.95;4.45;;;;;;;0.01;0.00;59042.03;10319139;28;20464;-58
2021/07/01 17:52:26;;;;;;;10.30;5.82;;;;;;;0.01;0.00;59042.03;10316317;28;20051;-59
2021/07/01 17:57:25;;;;;;;7.90;5.00;;;;;;;0.01;0.00;59042.03;10316074;28;20091;-59
2021/07/01 18:02:23;;;;;;;14.32;5.07;;;;;;;0.01;0.00;59042.03;10317762;28;20430;-59
2021/07/01 18:07:22;;;;;;;9.27;5.65;;;;;;;0.01;0.00;59042.03;10316499;28;20049;-58
2021/07/01 18:12:23;;;;;;;6.93;5.18;;;;;;;0.01;0.00;59042.03;10317412;28;20056;-59
2021/07/01 18:17:22;;;;;;;16.92;6.55;;;;;;;0.01;0.00;59042.03;10317570;28;20055;-59
2021/07/01 18:22:21;;;;;;;7.85;4.75;;;;;;;0.01;0.00;59042.03;10318313;28;20079;-59
2021/07/01 18:27:22;;;;;;;8.98;4.68;;;;;;;0.01;0.00;59042.03;10312731;28;20484;-59
2021/07/01 18:32:21;;;;;;;8.20;4.22;;;;;;;0.01;0.00;59042.03;10314034;28;20473;-59
2021/07/01 18:37:20;;;;;;;7.68;4.15;;;;;;;0.01;0.00;59042.03;10314525;28;20068;-58
2021/07/01 18:42:19;;;;;;;7.65;4.15;;;;;;;0.01;0.00;59042.03;10312816;28;20533;-59
2021/07/01 18:47:21;;;;;;;8.35;3.97;;;;;;;0.01;0.00;59042.03;10315251;28;20496;-59
2021/07/01 18:52:21;;;;;;;8.40;3.78;;;;;;;0.01;0.00;59042.03;10313924;28;20126;-59
2021/07/01 18:57:21;;;;;;;5.30;4.07;;;;;;;0.01;0.00;59042.03;10296285;28;20074;-59
2021/07/01 19:02:21;;;;;;;9.88;4.28;;;;;;;0.01;0.00;59042.03;10315531;28;20501;-59
2021/07/01 19:07:21;;;;;;;8.23;3.85;;;;;;;0.01;0.00;59042.03;10315443;28;20053;-59
2021/07/01 19:12:19;;;;;;;8.35;3.83;;;;;;;0.01;0.00;59042.03;10315659;28;20064;-59
2021/07/01 19:17:19;;;;;;;9.60;3.47;;;;;;;0.01;0.00;59042.03;10314661;28;20138;-59
2021/07/01 19:22:19;;;;;;;8.50;3.63;;;;;;;0.01;0.00;59042.03;10313331;28;20076;-59
2021/07/01 19:27:17;;;;;;;9.73;4.05;;;;;;;0.01;0.00;59042.03;10316388;28;20056;-59
2021/07/01 19:32:16;;;;;;;6.75;3.70;;;;;;;0.01;0.00;59042.03;10315962;28;20049;-59
2021/07/01 19:37:24;;;;;;;7.53;4.05;;;;;;;0.01;0.00;59042.03;10316386;28;20052;-59
2021/07/01 19:42:23;;;;;;;6.13;4.20;;;;;;;0.01;0.00;59042.03;10316367;28;20091;-58
2021/07/01 19:47:22;;;;;;;16.23;4.63;;;;;;;0.01;0.00;59042.03;10323146;28;20504;-59
2021/07/01 19:52:23;;;;;;;7.20;3.55;;;;;;;0.01;0.00;59042.03;10324224;28;20044;-59
2021/07/01 19:57:25;;;;;;;7.55;3.70;;;;;;;0.01;0.00;59042.03;10323336;28;20055;-59
2021/07/01 20:02:26;;;;;;;8.45;4.07;;;;;;;0.01;0.00;59042.03;10322641;28;20072;-58
2021/07/01 20:07:26;;;;;;;7.90;3.78;;;;;;;0.01;0.00;59042.03;10318946;28;20068;-58
2021/07/01 20:12:25;;;;;;;10.15;4.43;;;;;;;0.01;0.00;59042.03;10315442;28;20078;-58
2021/07/01 20:17:24;;;;;;;5.50;3.38;;;;;;;0.01;0.00;59042.03;10319089;28;20559;-59
2021/07/01 20:22:23;;;;;;;4.68;3.28;;;;;;;0.01;0.00;59042.03;10321646;28;20406;-59
2021/07/01 20:27:23;;;;;;;8.25;3.72;;;;;;;0.01;0.00;59042.03;10300154;28;20037;-59
2021/07/01 20:32:22;;;;;;;20.98;4.55;;;;;;;0.01;0.00;59042.03;10304441;28;20151;-59
2021/07/01 20:37:20;;;;;;;8.32;4.30;;;;;;;0.01;0.00;59042.03;10320759;28;20076;-59
2021/07/01 20:42:19;;;;;;;8.27;3.50;;;;;;;0.01;0.00;59042.03;10321672;28;20049;-59
2021/07/01 20:47:19;;;;;;;4.60;3.00;;;;;;;0.01;0.00;59042.03;10322483;28;20130;-59
2021/07/01 20:52:31;;;;;;;6.30;3.55;;;;;;;0.01;0.00;59042.03;10319824;28;20433;-59
2021/07/01 20:57:31;;;;;;;12.38;3.08;;;;;;;0.01;0.00;59042.03;10320617;28;20083;-58
2021/07/01 21:02:31;;;;;;;9.15;3.53;;;;;;;0.01;0.00;59042.03;10300965;28;20564;-59
2021/07/01 21:07:41;;;;;;;10.48;3.22;;;;;;;0.01;0.00;59042.03;10321453;28;20051;-59
2021/07/01 21:12:42;;;;;;;8.88;3.72;;;;;;;0.01;0.00;59042.03;10317786;28;20056;-59
2021/07/01 21:17:43;;;;;;;9.38;3.78;;;;;;;0.01;0.00;59042.03;10318764;28;20087;-59
2021/07/01 21:22:43;;;;;;;8.52;4.97;;;;;;;0.01;0.00;59042.03;10319261;28;20087;-59
2021/07/01 21:27:41;;;;;;;7.55;5.05;;;;;;;0.01;0.00;59042.03;10319346;28;20084;-58
2021/07/01 21:32:41;;;;;;;9.73;4.55;;;;;;;0.01;0.00;59042.03;10318825;28;20081;-59
2021/07/01 21:37:45;;;;;;;8.43;5.20;;;;;;;0.01;0.00;59042.03;10318143;28;20044;-59
2021/07/01 21:42:44;;;;;;;;;;;;;;;0.01;0.00;59042.03;10319528;28;20048;-60
2021/07/01 21:47:42;;;;;;;11.77;5.90;;;;;;;0.01;0.00;59042.03;10317657;28;19920;-58
2021/07/01 21:52:43;;;;;;;9.68;5.07;;;;;;;0.01;0.00;59042.03;10317191;28;20080;-59
2021/07/01 21:57:41;;;;;;;13.23;6.13;;;;;;;0.01;0.00;59042.03;10315705;28;20072;-59
2021/07/01 22:02:42;;;;;;;11.30;5.90;;;;;;;0.01;0.00;59042.03;10310539;28;20095;-59
2021/07/01 22:07:43;;;;;;;13.85;5.32;;;;;;;0.01;0.00;59042.03;10317934;28;20049;-60
2021/07/01 22:12:43;;;;;;;11.05;5.70;;;;;;;0.01;0.00;59042.03;10318332;28;20131;-59
2021/07/01 22:17:43;;;;;;;10.02;5.72;;;;;;;0.01;0.00;59042.03;10316111;28;20072;-59
2021/07/01 22:22:44;;;;;;;10.98;5.38;;;;;;;0.01;0.00;59042.03;10316578;28;20080;-59
2021/07/01 22:27:45;;;;;;;16.77;6.85;;;;;;;0.01;0.00;59042.03;10317727;28;20155;-59
2021/07/01 22:32:47;;;;;;;13.23;6.07;;;;;;;0.01;0.00;59042.03;10317315;28;20052;-59
2021/07/01 22:37:49;;;;;;;11.23;6.30;;;;;;;0.01;0.00;59042.03;10317171;28;20044;-59
2021/07/01 22:42:48;;;;;;;22.67;7.53;;;;;;;0.01;0.00;59042.03;10316932;28;20091;-59
2021/07/01 22:47:48;;;;;;;18.33;6.07;;;;;;;0.01;0.00;59042.03;10316770;28;20048;-60
2021/07/01 22:52:48;;;;;;;22.02;6.82;;;;;;;0.01;0.00;59042.03;10316317;28;20048;-59
2021/07/01 22:57:48;;;;;;;15.48;6.47;;;;;;;0.01;0.00;59042.03;10316094;28;20433;-60
2021/07/01 23:02:47;;;;;;;14.35;6.93;;;;;;;0.01;0.00;59042.03;10316345;28;20487;-60
2021/07/01 23:07:48;;;;;;;13.38;6.25;;;;;;;0.01;0.00;59042.03;10316109;28;20470;-60
2021/07/01 23:12:46;;;;;;;15.38;5.93;;;;;;;0.01;0.00;59042.03;10313683;28;20508;-59
2021/07/01 23:17:45;;;;;;;12.57;5.85;;;;;;;0.01;0.00;59042.03;10314595;28;20070;-59
2021/07/01 23:22:44;;;;;;;16.98;7.00;;;;;;;0.01;0.00;59042.03;10315971;28;20087;-58
2021/07/01 23:27:45;;;;;;;11.10;6.28;;;;;;;0.01;0.00;59042.03;10315491;28;20422;-58
2021/07/01 23:32:47;;;;;;;14.80;5.68;;;;;;;0.01;0.00;59042.03;10314942;28;20419;-59
2021/07/01 23:37:46;;;;;;;12.93;5.53;;;;;;;0.01;0.00;59042.03;10315955;28;20081;-59
2021/07/01 23:42:46;;;;;;;10.82;5.45;;;;;;;0.01;0.00;59042.03;10314390;28;20049;-59
2021/07/01 23:47:45;;;;;;;13.88;6.63;;;;;;;0.01;0.00;59042.03;10314659;28;20052;-59
2021/07/01 23:52:44;;;;;;;15.30;5.65;;;;;;;0.01;0.00;59042.03;10314186;28;20055;-59
2021/07/01 23:57:42;;;;;;;9.88;5.30;;;;;;;0.01;0.00;59042.03;10315172;28;20040;-59
